createdAt,value
2022-12-01T00:00:31.020Z,54.50
2022-12-01T00:01:30.853Z,51.10
2022-12-01T00:02:31.032Z,54.40
2022-12-01T00:03:30.909Z,53.00
2022-12-01T00:04:30.876Z,51.90
2022-12-01T00:05:30.887Z,57.30
2022-12-01T00:06:30.832Z,62.80
2022-12-01T00:07:30.932Z,66.10
2022-12-01T00:08:30.830Z,63.50
2022-12-01T00:09:30.797Z,65.10
2022-12-01T00:10:30.810Z,68.90
2022-12-01T00:11:30.800Z,66.10
2022-12-01T00:12:30.919Z,67.10
2022-12-01T00:13:30.798Z,68.20
2022-12-01T00:14:30.801Z,66.50
2022-12-01T00:15:30.804Z,66.70
2022-12-01T00:16:30.929Z,65.10
2022-12-01T00:17:30.777Z,67.00
2022-12-01T00:18:30.847Z,68.50
2022-12-01T00:19:30.755Z,66.30
2022-12-01T00:20:30.767Z,65.90
2022-12-01T00:21:30.733Z,67.20
2022-12-01T00:22:30.761Z,67.60
2022-12-01T00:23:30.760Z,73.10
2022-12-01T00:24:30.859Z,68.80
2022-12-01T00:25:30.722Z,68.00
2022-12-01T00:26:30.733Z,66.00
2022-12-01T00:27:30.761Z,66.20
2022-12-01T00:28:30.738Z,68.60
2022-12-01T00:29:30.760Z,67.90
2022-12-01T00:30:30.756Z,67.20
2022-12-01T00:31:30.769Z,63.80
2022-12-01T00:32:31.263Z,63.20
2022-12-01T00:33:30.723Z,67.30
2022-12-01T00:34:30.716Z,67.10
2022-12-01T00:35:30.721Z,66.00
2022-12-01T00:36:30.819Z,68.20
2022-12-01T00:37:30.715Z,66.50
2022-12-01T00:38:30.756Z,65.00
2022-12-01T00:39:30.679Z,66.20
2022-12-01T00:40:30.697Z,65.80
2022-12-01T00:41:30.675Z,70.10
2022-12-01T00:44:24.712Z,70.10
2022-12-01T00:45:24.602Z,65.90
2022-12-01T00:46:30.607Z,67.00
2022-12-01T00:47:30.627Z,64.80
2022-12-01T00:48:30.616Z,67.10
2022-12-01T00:49:30.707Z,66.80
2022-12-01T00:50:30.541Z,66.20
2022-12-01T00:51:30.561Z,66.10
2022-12-01T00:52:30.513Z,69.60
2022-12-01T00:53:30.529Z,66.10
2022-12-01T00:54:30.494Z,66.70
2022-12-01T00:55:30.515Z,65.90
2022-12-01T00:56:30.470Z,68.00
2022-12-01T00:57:30.478Z,66.20
2022-12-01T00:58:30.494Z,65.90
2022-12-01T00:59:30.479Z,67.20
2022-12-01T01:00:30.458Z,67.40
2022-12-01T01:01:30.487Z,66.20
2022-12-01T01:02:30.542Z,67.00
2022-12-01T01:03:30.449Z,66.00
2022-12-01T01:04:30.409Z,69.10
2022-12-01T01:05:30.431Z,65.50
2022-12-01T01:06:30.386Z,55.60
2022-12-01T01:07:36.556Z,57.50
2022-12-01T01:08:36.417Z,59.00
2022-12-01T01:09:36.379Z,57.20
2022-12-01T01:10:36.492Z,60.10
2022-12-01T01:11:36.379Z,58.70
2022-12-01T01:12:36.383Z,59.90
2022-12-01T01:13:36.370Z,63.40
2022-12-01T01:14:36.362Z,59.30
2022-12-01T01:15:36.353Z,60.90
2022-12-01T01:16:36.388Z,65.20
2022-12-01T01:17:36.331Z,58.80
2022-12-01T01:18:36.343Z,62.80
2022-12-01T01:19:36.323Z,56.50
2022-12-01T01:20:36.334Z,54.90
2022-12-01T01:21:36.351Z,53.00
2022-12-01T01:22:36.346Z,52.60
2022-12-01T01:23:36.336Z,53.10
2022-12-01T01:24:36.383Z,53.40
2022-12-01T01:25:36.337Z,52.10
2022-12-01T01:26:36.342Z,56.10
2022-12-01T01:27:36.746Z,55.40
2022-12-01T01:28:36.332Z,55.30
2022-12-01T01:29:36.330Z,52.90
2022-12-01T01:30:36.367Z,56.90
2022-12-01T01:31:36.307Z,56.80
2022-12-01T01:32:36.332Z,53.20
2022-12-01T01:33:36.306Z,57.00
2022-12-01T01:34:36.299Z,54.90
2022-12-01T01:35:36.276Z,55.60
2022-12-01T01:36:36.295Z,58.80
2022-12-01T01:37:36.261Z,56.10
2022-12-01T01:38:36.270Z,57.20
2022-12-01T01:39:36.256Z,56.80
2022-12-01T01:40:36.254Z,61.90
2022-12-01T01:41:36.254Z,61.10
2022-12-01T01:42:36.259Z,57.80
2022-12-01T01:43:36.355Z,59.50
2022-12-01T01:44:36.217Z,58.50
2022-12-01T01:45:36.240Z,64.00
2022-12-01T01:46:36.209Z,61.60
2022-12-01T01:47:36.161Z,59.10
2022-12-01T01:48:36.209Z,62.90
2022-12-01T01:49:36.138Z,60.40
2022-12-01T01:50:36.146Z,59.00
2022-12-01T01:51:36.106Z,59.50
2022-12-01T01:52:36.102Z,63.50
2022-12-01T01:53:36.057Z,62.40
2022-12-01T01:54:36.210Z,61.70
2022-12-01T01:55:36.020Z,62.40
2022-12-01T01:56:36.034Z,65.90
2022-12-01T01:57:35.995Z,66.20
2022-12-01T01:58:35.985Z,63.60
2022-12-01T01:59:35.979Z,63.20
2022-12-01T02:00:36.055Z,61.50
2022-12-01T02:01:36.022Z,59.60
2022-12-01T02:02:36.497Z,64.20
2022-12-01T02:03:35.934Z,59.60
2022-12-01T02:04:35.924Z,62.80
2022-12-01T02:05:36.163Z,65.40
2022-12-01T02:06:35.939Z,63.90
2022-12-01T02:07:35.981Z,61.90
2022-12-01T02:08:40.800Z,64.20
2022-12-01T02:09:40.896Z,62.70
2022-12-01T02:10:40.933Z,61.00
2022-12-01T02:11:41.018Z,63.30
2022-12-01T02:12:40.882Z,63.60
2022-12-01T02:13:40.898Z,64.70
2022-12-01T02:14:40.892Z,63.90
2022-12-01T02:15:41.040Z,63.30
2022-12-01T02:16:40.920Z,63.40
2022-12-01T02:17:42.015Z,62.00
2022-12-01T02:18:40.870Z,62.20
2022-12-01T02:19:40.906Z,63.50
2022-12-01T02:20:40.875Z,63.50
2022-12-01T02:21:40.962Z,61.30
2022-12-01T02:22:40.925Z,59.80
2022-12-01T02:23:40.944Z,59.70
2022-12-01T02:24:40.909Z,58.40
2022-12-01T02:25:40.890Z,61.10
2022-12-01T02:26:40.909Z,68.60
2022-12-01T02:27:40.889Z,63.90
2022-12-01T02:28:40.860Z,59.10
2022-12-01T02:29:40.886Z,59.40
2022-12-01T02:30:40.950Z,57.70
2022-12-01T02:31:40.891Z,57.00
2022-12-01T02:32:40.840Z,67.90
2022-12-01T02:33:40.840Z,57.90
2022-12-01T02:34:40.818Z,58.70
2022-12-01T02:35:40.940Z,57.10
2022-12-01T02:36:40.776Z,55.60
2022-12-01T02:37:40.831Z,55.30
2022-12-01T02:38:40.791Z,53.40
2022-12-01T02:39:40.748Z,54.70
2022-12-01T02:40:40.746Z,55.30
2022-12-01T02:41:40.766Z,53.80
2022-12-01T02:42:40.749Z,56.60
2022-12-01T02:43:40.730Z,52.40
2022-12-01T02:44:40.701Z,55.00
2022-12-01T02:45:40.799Z,56.50
2022-12-01T02:46:40.709Z,57.50
2022-12-01T02:47:40.746Z,54.50
2022-12-01T02:48:40.739Z,54.50
2022-12-01T02:49:40.677Z,53.90
2022-12-01T02:50:40.672Z,57.90
2022-12-01T02:51:40.685Z,55.10
2022-12-01T02:52:40.645Z,55.40
2022-12-01T02:53:40.716Z,56.50
2022-12-01T02:54:40.637Z,53.60
2022-12-01T02:55:40.653Z,55.80
2022-12-01T02:56:40.616Z,57.20
2022-12-01T02:57:40.634Z,54.90
2022-12-01T02:58:40.609Z,52.80
2022-12-01T02:59:40.789Z,55.70
2022-12-01T03:00:40.632Z,56.20
2022-12-01T03:01:40.690Z,57.80
2022-12-01T03:02:40.674Z,56.70
2022-12-01T03:03:40.613Z,54.80
2022-12-01T03:04:40.570Z,53.30
2022-12-01T03:05:40.615Z,57.90
2022-12-01T03:06:40.571Z,52.00
2022-12-01T03:07:40.755Z,53.90
2022-12-01T03:08:44.423Z,55.20
2022-12-01T03:09:44.615Z,57.10
2022-12-01T03:10:44.563Z,58.30
2022-12-01T03:11:44.479Z,58.40
2022-12-01T03:12:44.492Z,55.70
2022-12-01T03:13:44.453Z,54.60
2022-12-01T03:14:44.464Z,53.90
2022-12-01T03:15:44.500Z,56.70
2022-12-01T03:16:44.462Z,53.00
2022-12-01T03:17:44.394Z,54.20
2022-12-01T03:18:44.390Z,53.80
2022-12-01T03:19:44.355Z,55.40
2022-12-01T03:20:44.411Z,73.80
2022-12-01T03:21:44.326Z,72.00
2022-12-01T03:22:44.354Z,56.80
2022-12-01T03:23:44.322Z,54.50
2022-12-01T03:24:44.312Z,52.50
2022-12-01T03:25:44.250Z,55.70
2022-12-01T03:26:44.268Z,62.90
2022-12-01T03:28:00.702Z,64.10
2022-12-01T03:28:44.258Z,63.10
2022-12-01T03:29:44.184Z,64.30
2022-12-01T03:30:44.186Z,62.00
2022-12-01T03:31:44.265Z,64.10
2022-12-01T03:32:44.166Z,63.00
2022-12-01T03:33:44.133Z,61.50
2022-12-01T03:34:44.252Z,60.80
2022-12-01T03:35:44.091Z,54.90
2022-12-01T03:36:44.102Z,53.20
2022-12-01T03:37:44.057Z,52.10
2022-12-01T03:38:44.068Z,53.00
2022-12-01T03:39:44.053Z,51.40
2022-12-01T03:40:44.089Z,51.80
2022-12-01T03:41:44.018Z,56.20
2022-12-01T03:42:44.067Z,56.40
2022-12-01T03:43:44.008Z,56.30
2022-12-01T03:44:43.995Z,60.60
2022-12-01T03:45:43.970Z,62.90
2022-12-01T03:46:44.189Z,60.60
2022-12-01T03:47:43.947Z,58.80
2022-12-01T03:48:43.963Z,62.40
2022-12-01T03:49:43.938Z,62.40
2022-12-01T03:50:43.963Z,62.10
2022-12-01T03:51:43.950Z,51.00
2022-12-01T03:52:44.084Z,52.10
2022-12-01T03:53:44.041Z,55.10
2022-12-01T03:54:43.913Z,55.90
2022-12-01T03:55:43.885Z,52.60
2022-12-01T03:56:43.880Z,54.70
2022-12-01T03:57:43.865Z,55.30
2022-12-01T03:58:43.911Z,52.60
2022-12-01T03:59:43.862Z,56.30
2022-12-01T04:00:43.853Z,53.50
2022-12-01T04:01:43.837Z,54.00
2022-12-01T04:02:43.883Z,55.10
2022-12-01T04:03:43.801Z,53.40
2022-12-01T04:04:43.855Z,56.80
2022-12-01T04:05:43.771Z,54.90
2022-12-01T04:06:43.767Z,52.00
2022-12-01T04:07:43.827Z,55.10
2022-12-01T04:08:43.747Z,53.50
2022-12-01T04:09:43.715Z,54.80
2022-12-01T04:10:43.952Z,55.30
2022-12-01T04:11:43.674Z,56.00
2022-12-01T04:12:43.703Z,53.30
2022-12-01T04:13:43.656Z,53.30
2022-12-01T04:14:43.667Z,54.30
2022-12-01T04:15:43.694Z,53.20
2022-12-01T04:16:43.615Z,52.30
2022-12-01T04:17:43.572Z,57.30
2022-12-01T04:18:43.562Z,58.90
2022-12-01T04:19:43.647Z,58.00
2022-12-01T04:20:43.518Z,54.50
2022-12-01T04:21:43.490Z,55.40
2022-12-01T04:22:43.480Z,54.20
2022-12-01T04:23:43.442Z,60.10
2022-12-01T04:24:43.974Z,54.30
2022-12-01T04:25:43.523Z,54.80
2022-12-01T04:26:43.437Z,55.40
2022-12-01T04:27:43.398Z,53.40
2022-12-01T04:28:43.400Z,55.20
2022-12-01T04:29:43.371Z,58.20
2022-12-01T04:30:43.363Z,62.20
2022-12-01T04:31:43.498Z,57.80
2022-12-01T04:32:43.389Z,58.40
2022-12-01T04:33:43.301Z,57.10
2022-12-01T04:34:43.294Z,59.90
2022-12-01T04:35:43.318Z,56.40
2022-12-01T04:36:43.261Z,55.40
2022-12-01T04:37:43.237Z,57.10
2022-12-01T04:38:43.255Z,59.00
2022-12-01T04:39:43.216Z,58.60
2022-12-01T04:40:43.203Z,60.20
2022-12-01T04:41:43.152Z,55.20
2022-12-01T04:42:43.147Z,57.70
2022-12-01T04:43:43.133Z,57.20
2022-12-01T04:44:43.138Z,60.10
2022-12-01T04:45:43.080Z,59.10
2022-12-01T04:46:48.211Z,61.80
2022-12-01T04:47:48.078Z,62.70
2022-12-01T04:48:48.195Z,61.00
2022-12-01T04:49:48.314Z,65.20
2022-12-01T04:50:48.000Z,62.20
2022-12-01T04:51:48.013Z,59.90
2022-12-01T04:52:47.989Z,40.40
2022-12-01T04:53:47.982Z,39.00
2022-12-01T04:54:47.968Z,38.60
2022-12-01T04:55:47.984Z,40.00
2022-12-01T04:56:47.935Z,42.90
2022-12-01T04:57:48.064Z,42.60
2022-12-01T04:58:47.883Z,43.20
2022-12-01T04:59:48.387Z,42.90
2022-12-01T05:00:47.981Z,44.30
2022-12-01T05:01:48.448Z,43.40
2022-12-01T05:02:47.845Z,44.80
2022-12-01T05:03:52.783Z,43.60
2022-12-01T05:04:52.874Z,46.60
2022-12-01T05:05:52.966Z,44.80
2022-12-01T05:08:46.829Z,44.00
2022-12-01T05:09:47.071Z,45.40
2022-12-01T05:10:46.769Z,44.80
2022-12-01T05:11:46.732Z,46.60
2022-12-01T05:12:46.736Z,47.30
2022-12-01T05:13:46.671Z,46.80
2022-12-01T05:14:46.690Z,46.40
2022-12-01T05:15:46.636Z,46.50
2022-12-01T05:16:46.696Z,48.70
2022-12-01T05:17:46.658Z,47.00
2022-12-01T05:18:46.636Z,46.00
2022-12-01T05:19:46.974Z,46.90
2022-12-01T05:20:46.606Z,47.10
2022-12-01T05:21:46.556Z,45.30
2022-12-01T05:23:04.867Z,44.60
2022-12-01T05:23:46.577Z,47.80
2022-12-01T05:24:46.547Z,49.00
2022-12-01T05:25:46.506Z,48.70
2022-12-01T05:26:46.512Z,49.20
2022-12-01T05:27:46.497Z,49.00
2022-12-01T05:28:46.506Z,45.10
2022-12-01T05:29:46.875Z,47.90
2022-12-01T05:30:46.504Z,50.80
2022-12-01T05:31:46.504Z,48.60
2022-12-01T05:32:46.461Z,52.30
2022-12-01T05:33:46.436Z,49.20
2022-12-01T05:34:46.458Z,49.20
2022-12-01T05:35:46.564Z,48.80
2022-12-01T05:36:46.412Z,49.70
2022-12-01T05:37:46.410Z,50.40
2022-12-01T05:38:46.395Z,48.80
2022-12-01T05:39:46.724Z,50.60
2022-12-01T05:40:46.410Z,50.90
2022-12-01T05:41:46.477Z,48.80
2022-12-01T05:42:46.365Z,51.30
2022-12-01T05:43:46.341Z,52.00
2022-12-01T05:44:46.365Z,52.90
2022-12-01T05:45:46.379Z,49.10
2022-12-01T05:46:51.237Z,51.30
2022-12-01T05:47:51.283Z,51.90
2022-12-01T05:48:51.251Z,49.30
2022-12-01T05:49:51.554Z,52.00
2022-12-01T05:50:51.247Z,53.00
2022-12-01T05:51:55.247Z,53.70
2022-12-01T05:52:55.204Z,53.30
2022-12-01T05:53:55.151Z,52.10
2022-12-01T05:54:55.137Z,53.60
2022-12-01T05:55:55.200Z,55.20
2022-12-01T05:57:59.966Z,52.50
2022-12-01T05:59:00.059Z,53.30
2022-12-01T06:00:00.112Z,53.60
2022-12-01T06:01:00.033Z,65.00
2022-12-01T06:02:00.157Z,63.40
2022-12-01T06:03:00.022Z,62.30
2022-12-01T06:04:00.164Z,57.20
2022-12-01T06:04:59.967Z,60.00
2022-12-01T06:05:59.957Z,59.20
2022-12-01T06:06:59.970Z,59.10
2022-12-01T06:07:59.976Z,59.80
2022-12-01T06:09:00.008Z,59.00
2022-12-01T06:09:59.887Z,58.80
2022-12-01T06:10:59.845Z,62.10
2022-12-01T06:11:59.819Z,60.60
2022-12-01T06:12:59.799Z,60.30
2022-12-01T06:13:59.767Z,57.30
2022-12-01T06:14:59.779Z,89.50
2022-12-01T06:15:59.743Z,82.40
2022-12-01T06:16:59.816Z,60.80
2022-12-01T06:17:59.668Z,59.00
2022-12-01T06:18:59.696Z,65.20
2022-12-01T06:19:59.648Z,65.30
2022-12-01T06:20:59.739Z,62.90
2022-12-01T06:21:59.608Z,65.80
2022-12-01T06:22:59.650Z,67.10
2022-12-01T06:23:59.573Z,62.30
2022-12-01T06:24:59.998Z,60.10
2022-12-01T06:25:59.556Z,60.80
2022-12-01T06:26:59.593Z,63.10
2022-12-01T06:27:59.688Z,61.60
2022-12-01T06:28:59.550Z,61.60
2022-12-01T06:29:59.517Z,63.60
2022-12-01T06:31:03.143Z,65.80
2022-12-01T06:31:59.552Z,62.00
2022-12-01T06:32:59.633Z,64.90
2022-12-01T06:33:59.481Z,61.00
2022-12-01T06:34:59.453Z,64.70
2022-12-01T06:35:59.423Z,63.60
2022-12-01T06:36:59.411Z,66.80
2022-12-01T06:37:59.369Z,64.40
2022-12-01T06:38:59.532Z,66.00
2022-12-01T06:39:59.342Z,63.30
2022-12-01T06:40:59.366Z,64.80
2022-12-01T06:41:59.319Z,62.20
2022-12-01T06:42:59.322Z,60.40
2022-12-01T06:43:59.296Z,62.50
2022-12-01T06:44:59.312Z,61.20
2022-12-01T06:46:02.058Z,64.30
2022-12-01T06:46:59.268Z,59.60
2022-12-01T06:47:59.237Z,66.70
2022-12-01T06:48:59.233Z,63.80
2022-12-01T06:49:59.238Z,69.20
2022-12-01T06:50:59.360Z,66.10
2022-12-01T06:52:00.953Z,62.50
2022-12-01T06:52:59.456Z,61.40
2022-12-01T06:54:05.050Z,57.90
2022-12-01T06:54:59.193Z,61.30
2022-12-01T06:55:59.164Z,59.60
2022-12-01T06:56:59.210Z,64.10
2022-12-01T06:57:59.143Z,65.60
2022-12-01T06:58:59.165Z,61.90
2022-12-01T06:59:59.160Z,64.20
2022-12-01T07:00:59.415Z,65.40
2022-12-01T07:01:59.215Z,62.90
2022-12-01T07:02:59.328Z,60.40
2022-12-01T07:03:59.089Z,65.30
2022-12-01T07:05:04.979Z,68.90
2022-12-01T07:06:10.988Z,65.40
2022-12-01T07:07:11.103Z,67.20
2022-12-01T07:08:11.175Z,65.10
2022-12-01T07:09:11.057Z,64.80
2022-12-01T07:10:11.046Z,63.20
2022-12-01T07:11:11.168Z,63.80
2022-12-01T07:12:11.045Z,64.40
2022-12-01T07:13:11.041Z,68.30
2022-12-01T07:14:11.022Z,63.10
2022-12-01T07:15:11.059Z,69.60
2022-12-01T07:16:11.040Z,72.70
2022-12-01T07:17:11.090Z,67.40
2022-12-01T07:18:10.975Z,66.10
2022-12-01T07:19:10.995Z,63.00
2022-12-01T07:20:11.021Z,64.50
2022-12-01T07:21:11.087Z,70.00
2022-12-01T07:22:11.100Z,65.40
2022-12-01T07:23:10.985Z,66.60
2022-12-01T07:24:10.988Z,62.80
2022-12-01T07:25:11.048Z,67.60
2022-12-01T07:26:11.006Z,67.40
2022-12-01T07:27:11.129Z,65.20
2022-12-01T07:28:10.950Z,63.80
2022-12-01T07:29:11.006Z,68.70
2022-12-01T07:30:10.952Z,68.90
2022-12-01T07:31:11.082Z,65.70
2022-12-01T07:32:10.938Z,62.30
2022-12-01T07:33:11.093Z,63.40
2022-12-01T07:34:10.918Z,64.80
2022-12-01T07:35:10.949Z,64.40
2022-12-01T07:36:10.933Z,65.60
2022-12-01T07:37:11.117Z,64.00
2022-12-01T07:38:10.982Z,66.00
2022-12-01T07:39:16.848Z,66.10
2022-12-01T07:40:16.951Z,62.60
2022-12-01T07:41:16.925Z,66.20
2022-12-01T07:42:16.925Z,67.70
2022-12-01T07:43:16.921Z,67.90
2022-12-01T07:44:17.043Z,65.60
2022-12-01T07:45:16.906Z,64.60
2022-12-01T07:46:22.228Z,65.70
2022-12-01T07:47:16.881Z,65.40
2022-12-01T07:48:16.911Z,66.20
2022-12-01T07:49:16.854Z,69.80
2022-12-01T07:50:16.989Z,67.00
2022-12-01T07:51:16.892Z,60.20
2022-12-01T07:52:16.882Z,71.70
2022-12-01T07:53:16.851Z,50.00
2022-12-01T07:54:16.882Z,73.00
2022-12-01T07:55:16.829Z,66.90
2022-12-01T07:56:16.890Z,66.20
2022-12-01T07:57:16.832Z,68.80
2022-12-01T07:58:16.856Z,66.00
2022-12-01T07:59:17.236Z,67.00
2022-12-01T08:00:16.839Z,70.90
2022-12-01T08:01:16.870Z,68.50
2022-12-01T08:02:17.114Z,70.50
2022-12-01T08:03:16.863Z,68.00
2022-12-01T08:04:16.834Z,68.40
2022-12-01T08:05:16.833Z,65.90
2022-12-01T08:06:16.809Z,65.50
2022-12-01T08:07:16.782Z,63.20
2022-12-01T08:08:16.986Z,64.10
2022-12-01T08:09:16.752Z,61.30
2022-12-01T08:10:16.774Z,63.10
2022-12-01T08:11:16.743Z,65.70
2022-12-01T08:12:16.756Z,68.20
2022-12-01T08:13:17.558Z,64.50
2022-12-01T08:14:16.859Z,67.00
2022-12-01T08:15:16.715Z,67.40
2022-12-01T08:16:16.846Z,67.30
2022-12-01T08:17:16.683Z,68.90
2022-12-01T08:18:20.625Z,68.60
2022-12-01T08:19:20.848Z,63.70
2022-12-01T08:20:23.874Z,68.30
2022-12-01T08:21:20.666Z,59.00
2022-12-01T08:22:20.630Z,66.20
2022-12-01T08:23:20.655Z,66.80
2022-12-01T08:24:20.653Z,69.80
2022-12-01T08:25:20.798Z,72.90
2022-12-01T08:26:20.698Z,68.00
2022-12-01T08:27:20.609Z,69.00
2022-12-01T08:28:20.588Z,71.30
2022-12-01T08:29:20.692Z,71.90
2022-12-01T08:30:20.553Z,69.40
2022-12-01T08:31:20.684Z,70.10
2022-12-01T08:32:20.495Z,71.60
2022-12-01T08:33:20.494Z,71.70
2022-12-01T08:34:20.472Z,75.70
2022-12-01T08:35:20.482Z,76.60
2022-12-01T08:36:20.437Z,69.60
2022-12-01T08:37:20.463Z,79.50
2022-12-01T08:38:20.374Z,72.30
2022-12-01T08:39:20.393Z,72.50
2022-12-01T08:40:20.339Z,71.70
2022-12-01T08:41:20.348Z,70.30
2022-12-01T08:42:20.316Z,70.70
2022-12-01T08:43:49.570Z,66.50
2022-12-01T08:44:20.369Z,71.60
2022-12-01T08:45:20.256Z,64.80
2022-12-01T08:46:20.317Z,66.60
2022-12-01T08:47:20.238Z,66.40
2022-12-01T08:48:20.299Z,64.80
2022-12-01T08:49:20.229Z,68.20
2022-12-01T08:50:20.185Z,67.10
2022-12-01T08:51:20.193Z,70.00
2022-12-01T08:52:20.143Z,68.20
2022-12-01T08:53:20.188Z,65.50
2022-12-01T08:54:20.099Z,66.90
2022-12-01T08:55:20.113Z,66.60
2022-12-01T08:56:20.040Z,67.40
2022-12-01T08:57:20.053Z,67.10
2022-12-01T08:58:20.039Z,64.80
2022-12-01T08:59:20.144Z,71.80
2022-12-01T09:00:20.001Z,67.70
2022-12-01T09:01:20.108Z,64.20
2022-12-01T09:02:20.065Z,68.20
2022-12-01T09:03:25.901Z,65.60
2022-12-01T09:04:25.996Z,63.50
2022-12-01T09:05:25.985Z,67.60
2022-12-01T09:06:26.035Z,69.00
2022-12-01T09:07:26.685Z,67.70
2022-12-01T09:08:25.996Z,65.80
2022-12-01T09:09:26.121Z,66.10
2022-12-01T09:10:26.000Z,64.40
2022-12-01T09:11:25.960Z,65.00
2022-12-01T09:12:26.004Z,70.40
2022-12-01T09:13:25.945Z,65.70
2022-12-01T09:14:25.968Z,65.90
2022-12-01T09:15:25.927Z,65.50
2022-12-01T09:16:26.052Z,65.90
2022-12-01T09:17:25.919Z,66.10
2022-12-01T09:18:25.925Z,64.10
2022-12-01T09:19:25.890Z,68.80
2022-12-01T09:20:25.913Z,65.40
2022-12-01T09:21:25.858Z,65.00
2022-12-01T09:22:25.870Z,64.50
2022-12-01T09:23:25.845Z,65.60
2022-12-01T09:24:25.996Z,67.20
2022-12-01T09:25:25.843Z,66.60
2022-12-01T09:26:25.837Z,67.20
2022-12-01T09:27:25.807Z,67.40
2022-12-01T09:28:25.819Z,64.90
2022-12-01T09:29:25.811Z,65.70
2022-12-01T09:30:25.944Z,62.60
2022-12-01T09:33:19.846Z,65.40
2022-12-01T09:34:19.787Z,67.20
2022-12-01T09:35:23.385Z,65.40
2022-12-01T09:36:25.699Z,66.00
2022-12-01T09:37:25.715Z,63.10
2022-12-01T09:38:25.696Z,67.80
2022-12-01T09:39:25.730Z,72.00
2022-12-01T09:40:25.722Z,68.70
2022-12-01T09:41:25.683Z,65.50
2022-12-01T09:42:28.384Z,66.00
2022-12-01T09:43:25.714Z,66.50
2022-12-01T09:44:25.722Z,61.60
2022-12-01T09:45:25.652Z,66.90
2022-12-01T09:46:25.681Z,65.50
2022-12-01T09:47:25.651Z,63.00
2022-12-01T09:48:25.589Z,64.40
2022-12-01T09:49:25.597Z,69.90
2022-12-01T09:50:25.677Z,64.70
2022-12-01T09:51:25.599Z,66.50
2022-12-01T09:52:25.582Z,65.20
2022-12-01T09:53:25.568Z,64.10
2022-12-01T09:54:25.674Z,65.00
2022-12-01T09:55:25.575Z,64.50
2022-12-01T09:56:25.580Z,62.00
2022-12-01T09:57:25.565Z,64.50
2022-12-01T09:58:25.535Z,64.10
2022-12-01T09:59:25.574Z,60.90
2022-12-01T10:00:25.564Z,64.80
2022-12-01T10:01:27.433Z,63.50
2022-12-01T10:02:25.693Z,67.40
2022-12-01T10:03:25.549Z,68.70
2022-12-01T10:04:25.520Z,67.10
2022-12-01T10:05:25.782Z,63.70
2022-12-01T10:06:27.813Z,64.10
2022-12-01T10:07:25.595Z,63.00
2022-12-01T10:08:27.087Z,61.70
2022-12-01T10:09:25.535Z,63.70
2022-12-01T10:10:25.520Z,65.50
2022-12-01T10:11:30.446Z,63.00
2022-12-01T10:12:30.538Z,65.60
2022-12-01T10:13:30.633Z,63.80
2022-12-01T10:14:30.509Z,65.40
2022-12-01T10:15:30.635Z,63.40
2022-12-01T10:16:30.590Z,63.40
2022-12-01T10:17:30.476Z,71.80
2022-12-01T10:18:30.588Z,66.90
2022-12-01T10:19:30.592Z,66.90
2022-12-01T10:20:30.507Z,64.60
2022-12-01T10:21:30.482Z,65.90
2022-12-01T10:22:30.497Z,65.60
2022-12-01T10:23:30.564Z,64.40
2022-12-01T10:24:30.499Z,66.70
2022-12-01T10:25:30.497Z,64.40
2022-12-01T10:26:30.681Z,69.00
2022-12-01T10:27:30.431Z,67.80
2022-12-01T10:28:30.497Z,64.90
2022-12-01T10:29:30.425Z,66.30
2022-12-01T10:30:34.478Z,65.20
2022-12-01T10:31:34.553Z,67.20
2022-12-01T10:32:34.429Z,62.50
2022-12-01T10:33:34.448Z,67.40
2022-12-01T10:34:34.407Z,67.60
2022-12-01T10:35:38.348Z,67.50
2022-12-01T10:36:38.558Z,66.90
2022-12-01T10:37:38.477Z,65.60
2022-12-01T10:38:38.411Z,67.00
2022-12-01T10:39:38.395Z,66.70
2022-12-01T10:40:38.563Z,63.60
2022-12-01T10:41:38.375Z,66.00
2022-12-01T10:42:38.403Z,64.00
2022-12-01T10:43:38.378Z,65.30
2022-12-01T10:44:38.405Z,66.10
2022-12-01T10:45:38.443Z,70.10
2022-12-01T10:46:38.570Z,62.70
2022-12-01T10:47:38.401Z,71.20
2022-12-01T10:48:38.414Z,65.00
2022-12-01T10:49:38.420Z,72.30
2022-12-01T10:50:38.412Z,65.70
2022-12-01T10:51:38.395Z,66.70
2022-12-01T10:52:38.553Z,67.10
2022-12-01T10:53:38.384Z,69.20
2022-12-01T10:54:38.422Z,68.80
2022-12-01T10:55:41.944Z,68.70
2022-12-01T10:56:38.418Z,67.20
2022-12-01T10:57:38.381Z,66.20
2022-12-01T10:58:38.559Z,65.90
2022-12-01T10:59:38.382Z,67.70
2022-12-01T11:00:59.145Z,65.00
2022-12-01T11:01:38.537Z,68.50
2022-12-01T11:02:38.552Z,66.60
2022-12-01T11:03:38.579Z,67.70
2022-12-01T11:04:38.429Z,64.50
2022-12-01T11:05:38.410Z,67.40
2022-12-01T11:06:38.407Z,69.80
2022-12-01T11:07:38.468Z,65.70
2022-12-01T11:08:38.401Z,66.50
2022-12-01T11:09:38.385Z,66.10
2022-12-01T11:10:38.407Z,71.20
2022-12-01T11:11:38.373Z,71.80
2022-12-01T11:12:38.421Z,66.30
2022-12-01T11:13:38.359Z,69.60
2022-12-01T11:14:38.388Z,67.10
2022-12-01T11:15:38.367Z,68.00
2022-12-01T11:16:38.583Z,67.20
2022-12-01T11:17:38.376Z,69.80
2022-12-01T11:18:38.449Z,70.60
2022-12-01T11:19:38.574Z,66.40
2022-12-01T11:20:43.622Z,67.50
2022-12-01T11:21:43.388Z,63.00
2022-12-01T11:22:43.356Z,66.30
2022-12-01T11:23:43.381Z,66.10
2022-12-01T11:24:43.351Z,70.00
2022-12-01T11:25:43.373Z,68.70
2022-12-01T11:26:43.338Z,64.70
2022-12-01T11:27:43.385Z,67.50
2022-12-01T11:28:43.326Z,67.50
2022-12-01T11:29:43.380Z,66.50
2022-12-01T11:30:43.344Z,67.80
2022-12-01T11:31:43.490Z,66.40
2022-12-01T11:32:43.321Z,65.30
2022-12-01T11:33:43.447Z,65.00
2022-12-01T11:34:43.309Z,65.80
2022-12-01T11:35:43.337Z,67.10
2022-12-01T11:36:43.735Z,65.90
2022-12-01T11:37:46.948Z,68.50
2022-12-01T11:38:43.296Z,63.00
2022-12-01T11:39:43.327Z,61.70
2022-12-01T11:40:43.329Z,69.60
2022-12-01T11:41:43.311Z,66.20
2022-12-01T11:42:43.323Z,68.30
2022-12-01T11:43:46.758Z,62.30
2022-12-01T11:44:51.471Z,62.30
2022-12-01T11:45:43.477Z,63.30
2022-12-01T11:46:50.359Z,66.40
2022-12-01T11:47:43.323Z,62.30
2022-12-01T11:48:43.275Z,63.70
2022-12-01T11:49:48.730Z,64.20
2022-12-01T11:50:48.292Z,62.70
2022-12-01T11:51:48.246Z,62.10
2022-12-01T11:52:48.414Z,63.50
2022-12-01T11:53:48.241Z,63.60
2022-12-01T11:54:48.277Z,66.60
2022-12-01T11:55:48.270Z,66.20
2022-12-01T11:56:56.149Z,66.20
2022-12-01T11:57:48.253Z,66.00
2022-12-01T11:58:48.303Z,64.60
2022-12-01T11:59:48.565Z,66.50
2022-12-01T12:00:48.275Z,65.30
2022-12-01T12:01:48.259Z,63.00
2022-12-01T12:02:48.376Z,64.50
2022-12-01T12:03:48.395Z,62.50
2022-12-01T12:04:48.278Z,60.80
2022-12-01T12:05:48.249Z,64.70
2022-12-01T12:06:48.251Z,64.10
2022-12-01T12:07:48.307Z,60.80
2022-12-01T12:08:48.346Z,63.80
2022-12-01T12:09:48.499Z,63.20
2022-12-01T12:10:48.332Z,63.90
2022-12-01T12:11:48.254Z,63.90
2022-12-01T12:12:48.270Z,64.40
2022-12-01T12:13:48.234Z,64.20
2022-12-01T12:14:53.202Z,65.50
2022-12-01T12:15:53.282Z,65.00
2022-12-01T12:16:53.270Z,66.20
2022-12-01T12:17:53.376Z,63.40
2022-12-01T12:18:53.228Z,62.80
2022-12-01T12:20:07.773Z,65.10
2022-12-01T12:20:53.250Z,61.70
2022-12-01T12:21:53.253Z,63.90
2022-12-01T12:22:55.712Z,62.10
2022-12-01T12:23:53.281Z,64.40
2022-12-01T12:24:53.393Z,63.30
2022-12-01T12:25:53.351Z,62.30
2022-12-01T12:26:53.256Z,63.90
2022-12-01T12:27:58.150Z,62.20
2022-12-01T12:28:58.248Z,62.30
2022-12-01T12:29:58.238Z,62.10
2022-12-01T12:30:58.414Z,62.10
2022-12-01T12:31:58.277Z,63.30
2022-12-01T12:32:58.276Z,64.50
2022-12-01T12:33:58.243Z,62.90
2022-12-01T12:35:03.307Z,65.00
2022-12-01T12:36:03.384Z,67.90
2022-12-01T12:37:03.237Z,62.80
2022-12-01T12:38:03.249Z,63.00
2022-12-01T12:39:03.226Z,64.70
2022-12-01T12:40:03.253Z,65.40
2022-12-01T12:41:03.202Z,64.20
2022-12-01T12:42:03.372Z,64.10
2022-12-01T12:43:03.202Z,59.30
2022-12-01T12:44:07.159Z,65.30
2022-12-01T12:45:07.317Z,63.20
2022-12-01T12:46:07.292Z,63.60
2022-12-01T12:47:07.334Z,61.20
2022-12-01T12:48:07.197Z,63.80
2022-12-01T12:49:20.722Z,62.50
2022-12-01T12:50:07.185Z,61.10
2022-12-01T12:51:07.205Z,62.20
2022-12-01T12:52:08.933Z,62.20
2022-12-01T12:53:07.325Z,59.20
2022-12-01T12:54:07.244Z,61.70
2022-12-01T12:55:07.189Z,62.50
2022-12-01T12:56:07.181Z,61.90
2022-12-01T12:57:07.186Z,62.30
2022-12-01T12:58:11.138Z,60.80
2022-12-01T12:59:07.307Z,60.70
2022-12-01T13:00:07.144Z,60.70
2022-12-01T13:01:07.235Z,59.70